createdAt,value
2022-07-29T00:00:06.781Z,99279.13
2022-07-29T00:02:09.566Z,99277.13
2022-07-29T00:04:12.757Z,99288.66
2022-07-29T00:06:16.646Z,99283.44
2022-07-29T00:08:19.248Z,99283.03
2022-07-29T00:10:22.269Z,99282.59
2022-07-29T00:12:27.059Z,99277.81
2022-07-29T00:14:30.382Z,99280.19
2022-07-29T00:16:32.999Z,99280.59
2022-07-29T00:18:35.627Z,99280.16
2022-07-29T00:20:38.222Z,99286.09
2022-07-29T00:22:41.233Z,99281.69
2022-07-29T00:24:43.771Z,99285.66
2022-07-29T00:26:46.734Z,99287.63
2022-07-29T00:28:49.332Z,99280.84
2022-07-29T00:30:51.901Z,99289.19
2022-07-29T00:32:54.524Z,99286.00
2022-07-29T00:35:15.641Z,99282.34
2022-07-29T00:37:18.244Z,99285.09
2022-07-29T00:39:20.806Z,99278.31
2022-07-29T00:41:23.405Z,99279.88
2022-07-29T00:43:26.196Z,99286.25
2022-07-29T00:45:29.065Z,99285.00
2022-07-29T00:47:31.691Z,99284.59
2022-07-29T00:49:35.294Z,99278.22
2022-07-29T00:51:38.909Z,99286.97
2022-07-29T00:53:42.906Z,99280.19
2022-07-29T00:55:45.634Z,99282.53
2022-07-29T00:57:48.558Z,99275.78
2022-07-29T00:59:51.144Z,99277.34
2022-07-29T01:01:54.451Z,99275.75
2022-07-29T01:03:57.206Z,99280.47
2022-07-29T01:06:00.977Z,99281.69
2022-07-29T01:08:04.419Z,99272.91
2022-07-29T01:10:10.705Z,99278.47
2022-07-29T01:12:22.742Z,99280.44
2022-07-29T01:14:25.560Z,99282.44
2022-07-29T01:17:04.174Z,99282.88
2022-07-29T01:20:01.127Z,99283.59
2022-07-29T01:22:34.954Z,99292.34
2022-07-29T01:24:46.448Z,99283.16
2022-07-29T01:27:09.957Z,99285.84
2022-07-29T01:29:29.761Z,99284.69
2022-07-29T01:32:00.537Z,99290.69
2022-07-29T01:34:09.787Z,99294.28
2022-07-29T01:36:17.645Z,99280.03
2022-07-29T01:38:26.373Z,99287.59
2022-07-29T01:40:36.407Z,99290.00
2022-07-29T01:42:48.991Z,99298.78
2022-07-29T01:45:00.413Z,99294.00
2022-07-29T01:47:06.502Z,99295.56
2022-07-29T01:49:16.500Z,99300.34
2022-07-29T01:51:28.466Z,99296.44
2022-07-29T01:53:37.670Z,99291.69
2022-07-29T01:55:45.703Z,99290.56
2022-07-29T01:57:50.129Z,99295.41
2022-07-29T01:59:54.591Z,99287.13
2022-07-29T02:01:59.908Z,99296.72
2022-07-29T02:04:08.979Z,99282.81
2022-07-29T02:06:13.628Z,99306.75
2022-07-29T02:08:18.171Z,99296.84
2022-07-29T02:10:25.779Z,99298.13
2022-07-29T02:12:32.301Z,99292.97
2022-07-29T02:14:57.519Z,99293.81
2022-07-29T02:17:03.194Z,99299.44
2022-07-29T02:19:07.960Z,99302.28
2022-07-29T02:21:15.818Z,99293.97
2022-07-29T02:23:23.009Z,99292.81
2022-07-29T02:25:37.452Z,99295.22
2022-07-29T02:27:42.418Z,99291.66
2022-07-29T02:29:47.347Z,99290.94
2022-07-29T02:31:52.066Z,99289.41
2022-07-29T02:33:56.008Z,99291.81
2022-07-29T02:36:00.651Z,99294.63
2022-07-29T02:38:22.939Z,99293.88
2022-07-29T02:40:25.624Z,99293.50
2022-07-29T02:42:29.508Z,99290.38
2022-07-29T02:44:34.898Z,99287.22
2022-07-29T02:46:42.708Z,99279.72
2022-07-29T02:49:05.621Z,99290.50
2022-07-29T02:51:44.162Z,99279.78
2022-07-29T02:53:39.703Z,99292.13
2022-07-29T02:55:46.896Z,99286.59
2022-07-29T02:57:59.202Z,99281.81
2022-07-29T03:00:07.065Z,99286.25
2022-07-29T03:02:11.067Z,99296.63
2022-07-29T03:04:16.572Z,99291.47
2022-07-29T03:06:37.471Z,99278.75
2022-07-29T03:08:41.486Z,99294.34
2022-07-29T03:10:48.341Z,99297.94
2022-07-29T03:12:51.285Z,99295.19
2022-07-29T03:14:55.158Z,99300.78
2022-07-29T03:16:58.554Z,99299.66
2022-07-29T03:19:02.631Z,99302.06
2022-07-29T03:21:05.587Z,99304.09
2022-07-29T03:23:09.762Z,99314.88
2022-07-29T03:25:13.120Z,99304.16
2022-07-29T03:27:15.846Z,99300.22
2022-07-29T03:29:18.434Z,99304.19
2022-07-29T03:31:22.642Z,99295.88
2022-07-29T03:33:25.476Z,99299.09
2022-07-29T03:35:28.184Z,99301.91
2022-07-29T03:37:31.756Z,99299.53
2022-07-29T03:39:41.847Z,99297.19
2022-07-29T03:41:46.935Z,99296.78
2022-07-29T03:43:52.835Z,99299.59
2022-07-29T03:45:58.585Z,99294.03
2022-07-29T03:48:11.311Z,99290.06
2022-07-29T03:50:16.515Z,99296.88
2022-07-29T03:52:19.428Z,99289.31
2022-07-29T03:54:22.198Z,99300.50
2022-07-29T03:56:25.840Z,99289.75
2022-07-29T03:58:31.572Z,99291.34
2022-07-29T04:00:36.694Z,99289.75
2022-07-29T04:02:41.188Z,99282.56
2022-07-29T04:04:43.813Z,99287.78
2022-07-29T04:06:48.243Z,99289.00
2022-07-29T04:08:51.076Z,99292.56
2022-07-29T04:10:53.676Z,99287.78
2022-07-29T04:12:56.235Z,99285.78
2022-07-29T04:14:58.746Z,99287.34
2022-07-29T04:17:03.111Z,99284.63
2022-07-29T04:19:05.671Z,99282.59
2022-07-29T04:21:08.175Z,99288.19
2022-07-29T04:23:10.683Z,99281.38
2022-07-29T04:25:13.271Z,99282.97
2022-07-29T04:27:15.835Z,99284.94
2022-07-29T04:29:18.486Z,99290.13
2022-07-29T04:31:25.593Z,99284.53
2022-07-29T04:33:28.570Z,99280.91
2022-07-29T04:35:38.664Z,99292.06
2022-07-29T04:37:50.872Z,99292.88
2022-07-29T04:39:53.379Z,99290.84
2022-07-29T04:41:56.396Z,99289.25
2022-07-29T04:43:59.134Z,99294.81
2022-07-29T04:46:03.981Z,99298.41
2022-07-29T04:48:06.810Z,99295.19
2022-07-29T04:50:10.848Z,99295.19
2022-07-29T04:52:13.522Z,99290.38
2022-07-29T04:54:16.216Z,99293.53
2022-07-29T04:56:19.063Z,99299.09
2022-07-29T04:58:21.705Z,99299.09
2022-07-29T05:00:29.194Z,99305.88
2022-07-29T05:02:36.071Z,99301.03
2022-07-29T05:04:38.602Z,99303.78
2022-07-29T05:06:41.095Z,99299.34
2022-07-29T05:08:43.640Z,99298.13
2022-07-29T05:10:46.467Z,99291.69
2022-07-29T05:12:49.063Z,99302.84
2022-07-29T05:14:51.632Z,99298.88
2022-07-29T05:16:57.743Z,99301.22
2022-07-29T05:19:00.472Z,99304.41
2022-07-29T05:21:03.079Z,99297.56
2022-07-29T05:23:05.634Z,99298.72
2022-07-29T05:25:10.193Z,99299.50
2022-07-29T05:27:13.792Z,99294.25
2022-07-29T05:29:43.346Z,99297.03
2022-07-29T05:31:39.261Z,99295.41
2022-07-29T05:33:42.498Z,99287.78
2022-07-29T05:35:45.095Z,99288.91
2022-07-29T05:37:47.640Z,99284.88
2022-07-29T05:39:56.279Z,99282.06
2022-07-29T05:41:59.894Z,99284.03
2022-07-29T05:44:02.600Z,99279.19
2022-07-29T05:46:05.139Z,99279.56
2022-07-29T05:48:07.675Z,99273.47
2022-07-29T05:50:11.237Z,99278.66
2022-07-29T05:52:14.457Z,99274.19
2022-07-29T05:54:17.338Z,99268.53
2022-07-29T05:56:20.233Z,99272.50
2022-07-29T05:58:22.785Z,99266.91
2022-07-29T06:00:25.364Z,99276.09
2022-07-29T06:02:28.199Z,99268.47
2022-07-29T06:04:30.942Z,99267.59
2022-07-29T06:06:34.824Z,99268.28
2022-07-29T06:08:37.532Z,99273.44
2022-07-29T06:10:40.162Z,99277.00
2022-07-29T06:12:42.742Z,99277.78
2022-07-29T06:14:45.242Z,99275.78
2022-07-29T06:16:47.949Z,99274.56
2022-07-29T06:18:50.514Z,99277.28
2022-07-29T06:20:53.235Z,99270.44
2022-07-29T06:22:55.855Z,99265.91
2022-07-29T06:24:58.393Z,99264.31
2022-07-29T06:27:00.936Z,99276.69
2022-07-29T06:29:03.583Z,99273.06
2022-07-29T06:31:06.663Z,99275.06
2022-07-29T06:33:18.145Z,99263.84
2022-07-29T06:35:41.350Z,99275.44
2022-07-29T06:37:43.240Z,99272.66
2022-07-29T06:39:45.816Z,99278.28
2022-07-29T06:41:52.769Z,99271.41
2022-07-29T06:43:56.788Z,99271.00
2022-07-29T06:46:02.549Z,99268.13
2022-07-29T06:48:05.620Z,99281.38
2022-07-29T06:50:09.361Z,99272.53
2022-07-29T06:52:11.971Z,99281.69
2022-07-29T06:54:14.810Z,99274.41
2022-07-29T06:56:17.549Z,99277.59
2022-07-29T06:58:21.606Z,99285.19
2022-07-29T07:00:24.264Z,99283.50
2022-07-29T07:02:27.154Z,99280.25
2022-07-29T07:04:30.686Z,99281.84
2022-07-29T07:06:33.654Z,99278.53
2022-07-29T07:08:36.169Z,99285.69
2022-07-29T07:10:38.949Z,99283.59
2022-07-29T07:12:41.562Z,99278.84
2022-07-29T07:14:44.168Z,99276.03
2022-07-29T07:16:46.800Z,99275.13
2022-07-29T07:18:50.589Z,99287.41
2022-07-29T07:20:53.154Z,99276.84
2022-07-29T07:22:55.993Z,99277.97
2022-07-29T07:24:58.539Z,99291.16
2022-07-29T07:27:01.147Z,99287.88
2022-07-29T07:29:03.853Z,99284.66
2022-07-29T07:31:06.624Z,99293.75
2022-07-29T07:33:09.258Z,99285.31
2022-07-29T07:35:12.652Z,99284.66
2022-07-29T07:37:15.862Z,99283.78
2022-07-29T07:39:18.418Z,99287.34
2022-07-29T07:41:21.547Z,99277.38
2022-07-29T07:43:24.442Z,99279.28
2022-07-29T07:45:28.315Z,99272.75
2022-07-29T07:47:30.956Z,99272.53
2022-07-29T07:49:36.713Z,99274.84
2022-07-29T07:51:39.825Z,99279.19
2022-07-29T07:53:42.348Z,99273.94
2022-07-29T07:56:09.308Z,99264.72
2022-07-29T07:58:07.780Z,99267.16
2022-07-29T08:00:10.784Z,99265.06
2022-07-29T08:02:13.426Z,99267.38
2022-07-29T08:04:16.296Z,99271.81
2022-07-29T08:06:19.417Z,99276.47
2022-07-29T08:08:22.098Z,99265.19
2022-07-29T08:10:44.099Z,99279.06
2022-07-29T08:12:46.674Z,99273.78
2022-07-29T08:14:49.242Z,99267.16
2022-07-29T08:16:52.594Z,99272.81
2022-07-29T08:18:58.095Z,99265.50
2022-07-29T08:21:00.775Z,99263.69
2022-07-29T08:23:05.492Z,99272.25
2022-07-29T08:25:08.461Z,99266.47
2022-07-29T08:27:33.503Z,99271.09
2022-07-29T08:29:35.243Z,99270.38
2022-07-29T08:31:42.027Z,99269.75
2022-07-29T08:33:44.972Z,99266.06
2022-07-29T08:35:47.684Z,99272.78
2022-07-29T08:37:50.536Z,99266.25
2022-07-29T08:39:53.152Z,99281.06
2022-07-29T08:41:57.440Z,99279.41
2022-07-29T08:44:05.304Z,99277.66
2022-07-29T08:46:08.044Z,99280.31
2022-07-29T08:48:10.696Z,99273.38
2022-07-29T08:50:13.343Z,99269.53
2022-07-29T08:52:17.268Z,99254.28
2022-07-29T08:54:21.259Z,99268.59
2022-07-29T08:56:24.588Z,99265.47
2022-07-29T08:58:28.723Z,99272.19
2022-07-29T09:00:32.068Z,99259.00
2022-07-29T09:02:40.434Z,99269.25
2022-07-29T09:04:43.201Z,99266.38
2022-07-29T09:06:49.387Z,99267.69
2022-07-29T09:08:52.135Z,99267.59
2022-07-29T09:10:56.806Z,99262.13
2022-07-29T09:12:59.579Z,99259.63
2022-07-29T09:15:02.263Z,99262.44
2022-07-29T09:17:07.867Z,99261.13
2022-07-29T09:19:29.786Z,99259.16
2022-07-29T09:22:00.205Z,99252.47
2022-07-29T09:24:11.916Z,99252.81
2022-07-29T09:26:14.585Z,99249.13
2022-07-29T09:28:18.902Z,99248.16
2022-07-29T09:30:31.730Z,99245.22
2022-07-29T09:32:54.744Z,99248.31
2022-07-29T09:35:20.147Z,99246.09
2022-07-29T09:37:29.736Z,99250.34
2022-07-29T09:39:35.072Z,99249.47
2022-07-29T09:41:55.771Z,99236.94
2022-07-29T09:43:59.926Z,99254.56
2022-07-29T09:46:15.236Z,99252.38
2022-07-29T09:48:23.593Z,99249.03
2022-07-29T09:50:43.157Z,99261.13
2022-07-29T09:52:50.482Z,99250.44
2022-07-29T09:54:55.140Z,99259.44
2022-07-29T09:56:58.110Z,99241.72
2022-07-29T09:59:07.695Z,99249.47
2022-07-29T10:01:10.647Z,99250.06
2022-07-29T10:03:14.935Z,99252.09
2022-07-29T10:05:36.591Z,99249.91
2022-07-29T10:07:53.617Z,99246.84
2022-07-29T10:09:58.684Z,99236.66
2022-07-29T10:12:17.512Z,99247.13
2022-07-29T10:14:20.218Z,99244.63
2022-07-29T10:16:22.900Z,99253.25
2022-07-29T10:18:25.643Z,99255.19
2022-07-29T10:20:29.315Z,99250.03
2022-07-29T10:22:52.553Z,99255.41
2022-07-29T10:24:56.251Z,99265.56
2022-07-29T10:27:01.904Z,99264.56
2022-07-29T10:29:04.603Z,99259.41
2022-07-29T10:31:09.633Z,99264.97
2022-07-29T10:33:58.351Z,99261.88
2022-07-29T10:36:22.553Z,99260.66
2022-07-29T10:38:32.165Z,99261.22
2022-07-29T10:41:06.772Z,99267.16
2022-07-29T10:43:24.063Z,99262.41
2022-07-29T10:45:27.950Z,99261.72
2022-07-29T10:47:31.222Z,99252.09
2022-07-29T10:49:33.848Z,99259.47
2022-07-29T10:51:51.453Z,99254.38
2022-07-29T10:53:54.407Z,99250.19
2022-07-29T10:55:57.937Z,99247.34
2022-07-29T10:58:29.366Z,99253.00
2022-07-29T11:00:33.142Z,99251.22
2022-07-29T11:02:41.893Z,99238.84
2022-07-29T11:04:47.105Z,99244.03
2022-07-29T11:07:06.370Z,99245.75
2022-07-29T11:09:35.115Z,99243.06
2022-07-29T11:11:43.745Z,99245.50
2022-07-29T11:13:53.354Z,99252.78
2022-07-29T11:15:58.959Z,99246.53
2022-07-29T11:18:04.347Z,99243.53
2022-07-29T11:20:31.606Z,99242.91
2022-07-29T11:22:37.000Z,99242.19
2022-07-29T11:24:50.427Z,99236.28
2022-07-29T11:27:13.246Z,99235.38
2022-07-29T11:29:25.956Z,99241.63
2022-07-29T11:31:34.339Z,99242.44
2022-07-29T11:33:54.413Z,99247.25
2022-07-29T11:36:16.597Z,99243.47
2022-07-29T11:38:31.741Z,99246.84
2022-07-29T11:40:35.050Z,99254.63
2022-07-29T11:42:44.532Z,99251.00
2022-07-29T11:45:41.354Z,99250.34
2022-07-29T11:47:30.608Z,99253.41
2022-07-29T11:49:45.531Z,99254.41
2022-07-29T11:51:55.643Z,99248.13
2022-07-29T11:54:04.266Z,99247.38
2022-07-29T11:56:10.561Z,99242.63
2022-07-29T12:00:49.186Z,99238.34
2022-07-29T12:02:53.423Z,99229.88
2022-07-29T12:04:58.039Z,99230.72
2022-07-29T12:07:00.814Z,99223.75
2022-07-29T12:09:11.227Z,99225.47
2022-07-29T12:11:23.217Z,99223.69
2022-07-29T12:13:39.285Z,99220.34
2022-07-29T12:15:47.258Z,99220.50
2022-07-29T12:17:50.243Z,99218.28
2022-07-29T12:19:55.471Z,99206.06
2022-07-29T12:22:01.152Z,99213.69
2022-07-29T12:24:09.232Z,99207.75
2022-07-29T12:26:25.600Z,99206.91
2022-07-29T12:28:28.710Z,99205.50
2022-07-29T12:30:40.193Z,99204.59
2022-07-29T12:32:48.055Z,99202.25
2022-07-29T12:34:51.845Z,99183.47
2022-07-29T12:36:54.660Z,99191.94
2022-07-29T12:38:57.465Z,99195.78
2022-07-29T12:41:00.200Z,99204.50
2022-07-29T12:43:10.605Z,99206.75
2022-07-29T12:45:13.248Z,99210.75
2022-07-29T12:47:17.331Z,99211.19
2022-07-29T12:49:24.108Z,99208.53
2022-07-29T12:51:30.446Z,99221.16
2022-07-29T12:53:33.132Z,99217.16
2022-07-29T12:55:46.284Z,99214.56
2022-07-29T12:57:51.780Z,99223.72
2022-07-29T13:00:01.539Z,99224.16
2022-07-29T13:02:07.868Z,99224.97
2022-07-29T13:04:10.570Z,99224.63
2022-07-29T13:06:49.611Z,99233.72
2022-07-29T13:09:01.329Z,99232.59
2022-07-29T13:11:03.941Z,99234.88
2022-07-29T13:13:07.648Z,99236.16
2022-07-29T13:15:17.332Z,99235.47
2022-07-29T13:17:24.098Z,99229.97
2022-07-29T13:19:34.553Z,99229.91
2022-07-29T13:21:38.668Z,99230.31
2022-07-29T13:23:41.992Z,99233.28
2022-07-29T13:25:44.793Z,99232.28
2022-07-29T13:27:47.549Z,99229.50
2022-07-29T13:29:52.432Z,99233.41
2022-07-29T13:31:55.628Z,99238.16
2022-07-29T13:33:58.431Z,99226.84
2022-07-29T13:36:02.101Z,99224.72
2022-07-29T13:38:04.615Z,99239.00
2022-07-29T13:40:09.119Z,99241.69
2022-07-29T13:42:14.301Z,99239.75
2022-07-29T13:44:16.930Z,99231.94
2022-07-29T13:46:19.592Z,99228.28
2022-07-29T13:48:22.217Z,99229.69
2022-07-29T13:50:26.362Z,99234.22
2022-07-29T13:52:29.145Z,99231.59
2022-07-29T13:54:31.757Z,99234.34
2022-07-29T13:56:35.232Z,99233.69
2022-07-29T13:58:38.098Z,99221.91
2022-07-29T14:00:40.670Z,99228.97
2022-07-29T14:02:43.856Z,99231.34
2022-07-29T14:04:46.604Z,99220.09
2022-07-29T14:06:49.273Z,99223.34
2022-07-29T14:08:51.904Z,99226.28
2022-07-29T14:10:54.472Z,99217.91
2022-07-29T14:12:57.032Z,99223.75
2022-07-29T14:14:59.616Z,99223.59
2022-07-29T14:17:04.338Z,99216.00
2022-07-29T14:19:07.058Z,99218.25
2022-07-29T14:21:10.092Z,99219.94
2022-07-29T14:23:12.998Z,99218.91
2022-07-29T14:25:19.326Z,99215.47
2022-07-29T14:27:37.763Z,99215.31
2022-07-29T14:29:41.171Z,99224.53
2022-07-29T14:31:49.667Z,99227.84
2022-07-29T14:33:52.602Z,99225.34
2022-07-29T14:35:55.236Z,99222.47
2022-07-29T14:38:03.873Z,99224.16
2022-07-29T14:40:26.891Z,99215.56
2022-07-29T14:42:29.623Z,99219.53
2022-07-29T14:44:32.461Z,99219.59
2022-07-29T14:46:35.344Z,99219.19
2022-07-29T14:48:38.205Z,99217.56
2022-07-29T14:50:40.823Z,99225.81
2022-07-29T14:52:44.080Z,99222.09
2022-07-29T14:54:46.695Z,99218.75
2022-07-29T14:56:50.530Z,99212.31
2022-07-29T14:58:53.140Z,99215.81
2022-07-29T15:00:56.151Z,99209.53
2022-07-29T15:03:02.427Z,99213.81
2022-07-29T15:05:06.244Z,99207.56
2022-07-29T15:07:09.607Z,99200.25
2022-07-29T15:09:12.286Z,99195.28
2022-07-29T15:11:14.904Z,99195.81
2022-07-29T15:13:17.527Z,99192.38
2022-07-29T15:15:20.645Z,99194.50
2022-07-29T15:17:23.345Z,99197.66
2022-07-29T15:19:27.140Z,99193.84
2022-07-29T15:21:29.818Z,99190.81
2022-07-29T15:23:32.399Z,99185.00
2022-07-29T15:25:37.440Z,99198.66
2022-07-29T15:27:40.063Z,99195.78
2022-07-29T15:29:43.822Z,99189.72
2022-07-29T15:31:46.561Z,99190.31
2022-07-29T15:33:49.480Z,99194.66
2022-07-29T15:35:52.236Z,99192.41
2022-07-29T15:37:54.862Z,99187.25
2022-07-29T15:40:00.122Z,99196.06
2022-07-29T15:42:03.817Z,99194.09
2022-07-29T15:44:06.517Z,99196.03
2022-07-29T15:46:27.620Z,99195.75
2022-07-29T15:48:30.451Z,99187.75
2022-07-29T15:50:33.048Z,99189.47
2022-07-29T15:52:35.714Z,99191.75
2022-07-29T15:54:41.461Z,99198.66
2022-07-29T15:56:45.949Z,99197.97
2022-07-29T15:58:48.899Z,99199.50
2022-07-29T16:00:51.483Z,99202.34
2022-07-29T16:02:54.066Z,99203.91
2022-07-29T16:04:56.669Z,99204.34
2022-07-29T16:06:59.615Z,99203.88
2022-07-29T16:09:03.134Z,99199.16
2022-07-29T16:11:05.742Z,99200.63
2022-07-29T16:13:08.471Z,99195.28
2022-07-29T16:15:11.581Z,99200.69
2022-07-29T16:17:14.913Z,99203.34
2022-07-29T16:19:18.155Z,99203.19
2022-07-29T16:21:22.900Z,99207.88
2022-07-29T16:23:25.635Z,99207.69
2022-07-29T16:25:57.570Z,99210.34
2022-07-29T16:27:51.085Z,99203.94
2022-07-29T16:29:54.912Z,99205.44
2022-07-29T16:31:57.700Z,99202.44
2022-07-29T16:34:01.675Z,99219.22
2022-07-29T16:36:04.588Z,99211.50
2022-07-29T16:38:07.226Z,99219.22
2022-07-29T16:40:11.822Z,99222.91
2022-07-29T16:42:30.922Z,99222.34
2022-07-29T16:44:37.363Z,99231.41
2022-07-29T16:46:41.518Z,99225.69
2022-07-29T16:48:44.214Z,99230.81
2022-07-29T16:50:47.990Z,99214.25
2022-07-29T16:52:50.561Z,99221.56
2022-07-29T16:54:53.178Z,99220.00
2022-07-29T16:56:56.299Z,99219.47
2022-07-29T16:58:59.065Z,99217.66
2022-07-29T17:01:01.754Z,99215.78
2022-07-29T17:03:05.693Z,99218.28
2022-07-29T17:05:09.357Z,99218.03
2022-07-29T17:07:12.111Z,99212.91
2022-07-29T17:09:15.405Z,99209.34
2022-07-29T17:11:17.998Z,99199.38
2022-07-29T17:13:20.673Z,99198.59
2022-07-29T17:15:23.324Z,99195.75
2022-07-29T17:17:39.211Z,99202.09
2022-07-29T17:19:48.629Z,99201.28
2022-07-29T17:21:51.242Z,99185.34
2022-07-29T17:23:54.630Z,99192.56
2022-07-29T17:25:57.152Z,99200.63
2022-07-29T17:28:01.139Z,99191.81
2022-07-29T17:30:05.935Z,99200.31
2022-07-29T17:32:09.593Z,99190.88
2022-07-29T17:34:12.977Z,99190.50
2022-07-29T17:36:24.656Z,99190.50
2022-07-29T17:38:27.283Z,99182.16
2022-07-29T17:40:29.963Z,99181.06
2022-07-29T17:42:32.618Z,99191.97
2022-07-29T17:44:36.312Z,99181.69
2022-07-29T17:46:40.531Z,99187.41
2022-07-29T17:48:43.661Z,99185.06
2022-07-29T17:50:47.383Z,99183.06
2022-07-29T17:52:49.925Z,99175.97
2022-07-29T17:54:52.519Z,99172.38
2022-07-29T17:56:55.424Z,99170.13
2022-07-29T17:59:01.303Z,99170.59
2022-07-29T18:01:04.233Z,99179.81
2022-07-29T18:03:07.351Z,99175.47
2022-07-29T18:05:10.286Z,99191.50
2022-07-29T18:07:12.995Z,99167.22
2022-07-29T18:09:15.718Z,99188.81
2022-07-29T18:11:18.572Z,99186.44
2022-07-29T18:13:21.259Z,99181.28
2022-07-29T18:15:23.893Z,99172.09
2022-07-29T18:17:45.955Z,99175.31
2022-07-29T18:19:49.084Z,99175.03
2022-07-29T18:21:54.438Z,99174.66
2022-07-29T18:23:58.505Z,99177.13
2022-07-29T18:26:01.043Z,99169.94
2022-07-29T18:28:04.218Z,99170.38
2022-07-29T18:30:07.734Z,99178.41
2022-07-29T18:32:10.408Z,99172.44
2022-07-29T18:34:12.992Z,99172.03
2022-07-29T18:36:15.850Z,99173.66
2022-07-29T18:38:18.678Z,99174.50
2022-07-29T18:40:24.040Z,99178.13
2022-07-29T18:42:26.748Z,99170.19
2022-07-29T18:44:29.293Z,99168.97
2022-07-29T18:46:32.398Z,99178.19
2022-07-29T18:48:35.723Z,99162.19
2022-07-29T18:50:38.397Z,99174.22
2022-07-29T18:52:41.103Z,99165.13
2022-07-29T18:54:43.762Z,99167.97
2022-07-29T18:56:49.012Z,99172.78
2022-07-29T18:58:51.657Z,99177.19
2022-07-29T19:00:54.356Z,99176.06
2022-07-29T19:02:57.462Z,99172.09
2022-07-29T19:05:00.221Z,99175.69
2022-07-29T19:07:03.645Z,99178.13
2022-07-29T19:09:06.491Z,99180.94
2022-07-29T19:11:09.143Z,99180.97
2022-07-29T19:13:13.360Z,99179.44
2022-07-29T19:15:19.981Z,99173.06
2022-07-29T19:17:24.079Z,99179.06
2022-07-29T19:19:26.707Z,99176.28
2022-07-29T19:21:29.386Z,99178.66
2022-07-29T19:23:32.130Z,99177.88
2022-07-29T19:25:54.798Z,99181.91
2022-07-29T19:27:57.410Z,99180.72
2022-07-29T19:29:59.964Z,99185.50
2022-07-29T19:32:05.221Z,99182.31
2022-07-29T19:34:08.283Z,99172.34
2022-07-29T19:36:10.889Z,99181.94
2022-07-29T19:38:13.953Z,99176.34
2022-07-29T19:40:16.735Z,99175.16
2022-07-29T19:42:19.316Z,99179.19
2022-07-29T19:44:22.195Z,99174.41
2022-07-29T19:46:25.465Z,99170.81
2022-07-29T19:48:28.117Z,99178.00
2022-07-29T19:50:31.318Z,99170.00
2022-07-29T19:52:33.943Z,99169.25
2022-07-29T19:54:36.560Z,99174.41
2022-07-29T19:56:42.078Z,99176.81
2022-07-29T19:58:44.974Z,99180.03
2022-07-29T20:00:47.940Z,99170.88
2022-07-29T20:02:50.906Z,99169.66
2022-07-29T20:04:53.685Z,99187.59
2022-07-29T20:07:01.733Z,99178.03
2022-07-29T20:09:06.242Z,99179.63
2022-07-29T20:11:08.865Z,99183.22
2022-07-29T20:13:11.506Z,99180.06
2022-07-29T20:15:16.593Z,99178.84
2022-07-29T20:17:22.423Z,99177.25
2022-07-29T20:19:25.089Z,99186.03
2022-07-29T20:21:27.681Z,99171.69
2022-07-29T20:23:33.326Z,99168.88
2022-07-29T20:25:36.932Z,99175.66
2022-07-29T20:27:43.199Z,99182.06
2022-07-29T20:29:45.789Z,99181.28
2022-07-29T20:31:52.232Z,99183.25
2022-07-29T20:33:59.531Z,99175.66
2022-07-29T20:36:02.043Z,99179.66
2022-07-29T20:38:04.666Z,99188.00
2022-07-29T20:40:08.521Z,99186.00
2022-07-29T20:42:16.586Z,99190.00
2022-07-29T20:44:19.925Z,99189.19
2022-07-29T20:46:22.594Z,99185.59
2022-07-29T20:48:25.204Z,99194.38
2022-07-29T20:50:28.807Z,99188.78
2022-07-29T20:52:31.589Z,99196.34
2022-07-29T20:54:34.633Z,99192.78
2022-07-29T20:56:37.302Z,99195.94
2022-07-29T20:58:41.059Z,99196.34
2022-07-29T21:00:43.865Z,99200.34
2022-07-29T21:02:46.701Z,99204.72
2022-07-29T21:04:49.419Z,99209.09
2022-07-29T21:06:52.012Z,99208.31
2022-07-29T21:08:58.003Z,99213.06
2022-07-29T21:11:00.670Z,99206.69
2022-07-29T21:13:03.424Z,99205.09
2022-07-29T21:15:06.780Z,99204.69
2022-07-29T21:17:09.294Z,99213.84
2022-07-29T21:19:12.892Z,99212.25
2022-07-29T21:21:16.603Z,99211.44
2022-07-29T21:23:19.165Z,99217.81
2022-07-29T21:25:22.915Z,99217.00
2022-07-29T21:27:44.049Z,99217.81
2022-07-29T21:29:46.602Z,99218.22
2022-07-29T21:31:49.183Z,99223.00
2022-07-29T21:33:51.809Z,99222.59
2022-07-29T21:38:18.447Z,99211.41
2022-07-29T21:40:21.432Z,99208.63
2022-07-29T21:42:26.474Z,99215.78
2022-07-29T21:44:29.013Z,99213.00
2022-07-29T21:46:31.583Z,99208.19
2022-07-29T21:48:34.154Z,99208.56
2022-07-29T21:50:36.761Z,99216.16
2022-07-29T21:52:39.437Z,99213.75
2022-07-29T21:54:42.646Z,99212.97
2022-07-29T21:56:45.323Z,99213.75
2022-07-29T21:58:53.901Z,99212.94
2022-07-29T22:00:56.417Z,99209.75
2022-07-29T22:02:58.964Z,99218.91
2022-07-29T22:05:01.621Z,99218.13
2022-07-29T22:07:05.657Z,99208.13
2022-07-29T22:09:08.166Z,99209.34
2022-07-29T22:11:10.723Z,99209.75
2022-07-29T22:13:13.280Z,99207.34
2022-07-29T22:15:15.863Z,99207.72
2022-07-29T22:17:20.085Z,99210.94
2022-07-29T22:19:22.703Z,99208.94
2022-07-29T22:21:30.560Z,99204.16
2022-07-29T22:23:33.064Z,99209.31
2022-07-29T22:25:35.796Z,99212.13
2022-07-29T22:27:38.911Z,99215.72
2022-07-29T22:29:41.518Z,99215.31
2022-07-29T22:31:44.918Z,99214.13
2022-07-29T22:33:50.955Z,99218.13
2022-07-29T22:35:53.559Z,99210.94
2022-07-29T22:37:56.118Z,99209.75
2022-07-29T22:39:58.709Z,99214.13
2022-07-29T22:42:01.566Z,99212.13
2022-07-29T22:44:04.368Z,99218.91
2022-07-29T22:46:10.977Z,99223.31
2022-07-29T22:48:14.456Z,99223.75
2022-07-29T22:50:17.481Z,99226.94
2022-07-29T22:52:20.046Z,99222.56
2022-07-29T22:54:22.809Z,99219.38
2022-07-29T22:56:25.502Z,99224.16
2022-07-29T22:58:28.085Z,99219.38
2022-07-29T23:00:30.734Z,99220.56
2022-07-29T23:02:33.336Z,99222.16
2022-07-29T23:04:35.926Z,99219.78
2022-07-29T23:06:38.548Z,99224.56
2022-07-29T23:08:41.502Z,99221.78
2022-07-29T23:10:44.191Z,99221.38
2022-07-29T23:12:46.951Z,99219.38
2022-07-29T23:14:49.451Z,99229.31
2022-07-29T23:16:53.345Z,99227.72
2022-07-29T23:18:56.043Z,99229.72
2022-07-29T23:20:58.596Z,99241.69
2022-07-29T23:23:01.145Z,99238.50
2022-07-29T23:25:05.104Z,99250.03
2022-07-29T23:27:07.807Z,99238.09
2022-07-29T23:29:10.550Z,99250.84
2022-07-29T23:31:13.780Z,99248.03
2022-07-29T23:33:16.406Z,99248.84
2022-07-29T23:35:19.110Z,99245.25
2022-07-29T23:37:21.913Z,99244.44
2022-07-29T23:39:24.529Z,99246.06
2022-07-29T23:41:31.068Z,99245.25
2022-07-29T23:43:33.576Z,99244.44
2022-07-29T23:45:42.559Z,99241.25
2022-07-29T23:47:47.619Z,99238.47
2022-07-29T23:49:50.359Z,99239.69
2022-07-29T23:51:52.945Z,99251.22
2022-07-29T23:53:55.462Z,99244.09
2022-07-29T23:55:58.143Z,99244.47
2022-07-29T23:58:00.858Z,99241.69
